sensor_id;sensor_type;location;lat;lon;timestamp;P1;durP1;ratioP1;P2;durP2;ratioP2
10910;SDS011;5508;49.150;11.030;2024-03-08T00:00:53;34.23;;;22.30;;
10910;SDS011;5508;49.150;11.030;2024-03-08T00:03:54;32.17;;;20.73;;
10910;SDS011;5508;49.150;11.030;2024-03-08T00:06:55;38.97;;;19.90;;
10910;SDS011;5508;49.150;11.030;2024-03-08T00:09:55;30.63;;;19.73;;
10910;SDS011;5508;49.150;11.030;2024-03-08T00:12:56;31.63;;;20.30;;
10910;SDS011;5508;49.150;11.030;2024-03-08T00:15:57;31.63;;;20.43;;
10910;SDS011;5508;49.150;11.030;2024-03-08T00:18:58;32.03;;;20.87;;
10910;SDS011;5508;49.150;11.030;2024-03-08T00:21:59;35.57;;;21.10;;
10910;SDS011;5508;49.150;11.030;2024-03-08T00:25:00;31.07;;;20.77;;
10910;SDS011;5508;49.150;11.030;2024-03-08T00:28:01;32.40;;;20.60;;
10910;SDS011;5508;49.150;11.030;2024-03-08T00:31:04;36.60;;;22.93;;
10910;SDS011;5508;49.150;11.030;2024-03-08T00:34:07;36.17;;;22.90;;
10910;SDS011;5508;49.150;11.030;2024-03-08T00:37:07;39.53;;;23.77;;
10910;SDS011;5508;49.150;11.030;2024-03-08T00:40:08;38.23;;;21.80;;
10910;SDS011;5508;49.150;11.030;2024-03-08T00:43:09;35.03;;;22.37;;
10910;SDS011;5508;49.150;11.030;2024-03-08T00:46:10;35.17;;;23.03;;
10910;SDS011;5508;49.150;11.030;2024-03-08T00:49:10;40.10;;;24.47;;
10910;SDS011;5508;49.150;11.030;2024-03-08T00:52:12;38.23;;;23.00;;
10910;SDS011;5508;49.150;11.030;2024-03-08T00:55:13;34.73;;;22.63;;
10910;SDS011;5508;49.150;11.030;2024-03-08T00:58:13;41.83;;;23.63;;
10910;SDS011;5508;49.150;11.030;2024-03-08T01:01:14;39.67;;;23.40;;
10910;SDS011;5508;49.150;11.030;2024-03-08T01:04:17;35.37;;;22.57;;
10910;SDS011;5508;49.150;11.030;2024-03-08T01:07:18;34.33;;;21.70;;
10910;SDS011;5508;49.150;11.030;2024-03-08T01:10:19;37.83;;;23.23;;
10910;SDS011;5508;49.150;11.030;2024-03-08T01:13:20;38.83;;;23.67;;
10910;SDS011;5508;49.150;11.030;2024-03-08T01:16:21;36.57;;;22.83;;
10910;SDS011;5508;49.150;11.030;2024-03-08T01:19:21;35.83;;;24.13;;
10910;SDS011;5508;49.150;11.030;2024-03-08T01:22:23;43.30;;;24.53;;
10910;SDS011;5508;49.150;11.030;2024-03-08T01:25:24;36.17;;;23.07;;
10910;SDS011;5508;49.150;11.030;2024-03-08T01:28:25;40.73;;;24.50;;
10910;SDS011;5508;49.150;11.030;2024-03-08T01:31:26;34.90;;;23.97;;
10910;SDS011;5508;49.150;11.030;2024-03-08T01:34:28;42.40;;;25.50;;
10910;SDS011;5508;49.150;11.030;2024-03-08T01:37:29;44.73;;;26.43;;
10910;SDS011;5508;49.150;11.030;2024-03-08T01:40:30;42.43;;;24.97;;
10910;SDS011;5508;49.150;11.030;2024-03-08T01:43:30;40.77;;;24.90;;
10910;SDS011;5508;49.150;11.030;2024-03-08T01:46:31;43.40;;;25.23;;
10910;SDS011;5508;49.150;11.030;2024-03-08T01:49:31;41.63;;;25.57;;
10910;SDS011;5508;49.150;11.030;2024-03-08T01:52:33;37.77;;;23.80;;
10910;SDS011;5508;49.150;11.030;2024-03-08T01:55:35;37.90;;;23.67;;
10910;SDS011;5508;49.150;11.030;2024-03-08T01:58:37;34.93;;;23.67;;
10910;SDS011;5508;49.150;11.030;2024-03-08T02:01:38;37.50;;;22.70;;
10910;SDS011;5508;49.150;11.030;2024-03-08T02:04:39;38.37;;;24.17;;
10910;SDS011;5508;49.150;11.030;2024-03-08T02:07:42;43.57;;;24.57;;
10910;SDS011;5508;49.150;11.030;2024-03-08T02:10:44;38.03;;;24.27;;
10910;SDS011;5508;49.150;11.030;2024-03-08T02:13:45;38.13;;;24.33;;
10910;SDS011;5508;49.150;11.030;2024-03-08T02:16:45;38.77;;;24.80;;
10910;SDS011;5508;49.150;11.030;2024-03-08T02:19:46;36.57;;;22.77;;
10910;SDS011;5508;49.150;11.030;2024-03-08T02:22:48;41.10;;;24.17;;
10910;SDS011;5508;49.150;11.030;2024-03-08T02:25:50;39.13;;;22.50;;
10910;SDS011;5508;49.150;11.030;2024-03-08T02:28:52;36.57;;;22.93;;
10910;SDS011;5508;49.150;11.030;2024-03-08T02:31:52;37.23;;;24.17;;
10910;SDS011;5508;49.150;11.030;2024-03-08T02:34:56;44.00;;;24.90;;
10910;SDS011;5508;49.150;11.030;2024-03-08T02:37:59;38.40;;;24.33;;
10910;SDS011;5508;49.150;11.030;2024-03-08T02:41:00;43.30;;;23.60;;
10910;SDS011;5508;49.150;11.030;2024-03-08T02:44:01;41.33;;;24.47;;
10910;SDS011;5508;49.150;11.030;2024-03-08T02:47:01;38.17;;;24.70;;
10910;SDS011;5508;49.150;11.030;2024-03-08T02:50:02;37.10;;;23.77;;
10910;SDS011;5508;49.150;11.030;2024-03-08T02:53:03;39.33;;;24.53;;
10910;SDS011;5508;49.150;11.030;2024-03-08T02:56:04;34.60;;;22.67;;
10910;SDS011;5508;49.150;11.030;2024-03-08T02:59:08;38.23;;;22.97;;
10910;SDS011;5508;49.150;11.030;2024-03-08T03:02:09;34.27;;;20.07;;
10910;SDS011;5508;49.150;11.030;2024-03-08T03:05:10;33.27;;;21.50;;
10910;SDS011;5508;49.150;11.030;2024-03-08T03:08:11;35.10;;;22.60;;
10910;SDS011;5508;49.150;11.030;2024-03-08T03:11:13;36.00;;;22.87;;
10910;SDS011;5508;49.150;11.030;2024-03-08T03:14:13;34.40;;;22.37;;
10910;SDS011;5508;49.150;11.030;2024-03-08T03:17:16;34.80;;;21.87;;
10910;SDS011;5508;49.150;11.030;2024-03-08T03:20:17;38.00;;;21.90;;
10910;SDS011;5508;49.150;11.030;2024-03-08T03:23:25;40.40;;;23.50;;
10910;SDS011;5508;49.150;11.030;2024-03-08T03:26:26;41.13;;;24.10;;
10910;SDS011;5508;49.150;11.030;2024-03-08T03:29:26;41.33;;;25.33;;
10910;SDS011;5508;49.150;11.030;2024-03-08T03:32:27;38.20;;;24.30;;
10910;SDS011;5508;49.150;11.030;2024-03-08T03:35:28;41.23;;;24.60;;
10910;SDS011;5508;49.150;11.030;2024-03-08T03:38:29;38.23;;;23.40;;
10910;SDS011;5508;49.150;11.030;2024-03-08T03:41:30;39.13;;;23.63;;
10910;SDS011;5508;49.150;11.030;2024-03-08T03:44:30;35.03;;;22.40;;
10910;SDS011;5508;49.150;11.030;2024-03-08T03:47:31;34.07;;;22.00;;
10910;SDS011;5508;49.150;11.030;2024-03-08T03:50:31;34.00;;;21.97;;
10910;SDS011;5508;49.150;11.030;2024-03-08T03:53:35;35.00;;;21.90;;
10910;SDS011;5508;49.150;11.030;2024-03-08T03:56:36;35.23;;;22.30;;
10910;SDS011;5508;49.150;11.030;2024-03-08T03:59:36;38.10;;;23.70;;
10910;SDS011;5508;49.150;11.030;2024-03-08T04:02:37;40.53;;;24.93;;
10910;SDS011;5508;49.150;11.030;2024-03-08T04:05:38;42.37;;;24.37;;
10910;SDS011;5508;49.150;11.030;2024-03-08T04:08:39;42.13;;;25.30;;
10910;SDS011;5508;49.150;11.030;2024-03-08T04:11:40;40.33;;;23.80;;
10910;SDS011;5508;49.150;11.030;2024-03-08T04:14:41;44.50;;;25.20;;
10910;SDS011;5508;49.150;11.030;2024-03-08T04:17:42;38.10;;;23.83;;
10910;SDS011;5508;49.150;11.030;2024-03-08T04:20:45;42.90;;;24.33;;
10910;SDS011;5508;49.150;11.030;2024-03-08T04:23:46;35.93;;;23.57;;
10910;SDS011;5508;49.150;11.030;2024-03-08T04:26:46;41.93;;;24.80;;
10910;SDS011;5508;49.150;11.030;2024-03-08T04:29:47;38.17;;;24.40;;
10910;SDS011;5508;49.150;11.030;2024-03-08T04:32:48;45.23;;;26.20;;
10910;SDS011;5508;49.150;11.030;2024-03-08T04:35:49;41.43;;;24.43;;
10910;SDS011;5508;49.150;11.030;2024-03-08T04:38:50;36.97;;;23.57;;
10910;SDS011;5508;49.150;11.030;2024-03-08T04:41:51;33.77;;;22.73;;
10910;SDS011;5508;49.150;11.030;2024-03-08T04:44:51;39.87;;;23.47;;
10910;SDS011;5508;49.150;11.030;2024-03-08T04:47:53;41.07;;;23.27;;
10910;SDS011;5508;49.150;11.030;2024-03-08T04:50:54;36.10;;;23.80;;
10910;SDS011;5508;49.150;11.030;2024-03-08T04:53:55;35.37;;;23.00;;
10910;SDS011;5508;49.150;11.030;2024-03-08T04:56:57;38.10;;;23.33;;
10910;SDS011;5508;49.150;11.030;2024-03-08T04:59:57;40.20;;;23.97;;
10910;SDS011;5508;49.150;11.030;2024-03-08T05:02:59;39.30;;;21.97;;
10910;SDS011;5508;49.150;11.030;2024-03-08T05:06:02;42.30;;;22.50;;
10910;SDS011;5508;49.150;11.030;2024-03-08T05:09:03;36.47;;;23.23;;
10910;SDS011;5508;49.150;11.030;2024-03-08T05:12:13;40.50;;;23.50;;
10910;SDS011;5508;49.150;11.030;2024-03-08T05:15:14;41.83;;;25.50;;
10910;SDS011;5508;49.150;11.030;2024-03-08T05:18:14;37.13;;;24.53;;
10910;SDS011;5508;49.150;11.030;2024-03-08T05:21:15;34.40;;;23.10;;
10910;SDS011;5508;49.150;11.030;2024-03-08T05:24:20;42.93;;;25.73;;
10910;SDS011;5508;49.150;11.030;2024-03-08T05:27:20;43.27;;;27.47;;
10910;SDS011;5508;49.150;11.030;2024-03-08T05:30:21;41.87;;;25.87;;
10910;SDS011;5508;49.150;11.030;2024-03-08T05:33:22;43.73;;;26.03;;
10910;SDS011;5508;49.150;11.030;2024-03-08T05:36:23;41.67;;;27.00;;
10910;SDS011;5508;49.150;11.030;2024-03-08T05:39:24;42.93;;;27.83;;
10910;SDS011;5508;49.150;11.030;2024-03-08T05:42:24;56.53;;;32.27;;
10910;SDS011;5508;49.150;11.030;2024-03-08T05:45:25;42.40;;;26.53;;
10910;SDS011;5508;49.150;11.030;2024-03-08T05:48:26;45.23;;;26.53;;
10910;SDS011;5508;49.150;11.030;2024-03-08T05:51:28;47.93;;;26.70;;
10910;SDS011;5508;49.150;11.030;2024-03-08T05:54:28;58.70;;;37.37;;
10910;SDS011;5508;49.150;11.030;2024-03-08T05:57:29;88.87;;;57.20;;
10910;SDS011;5508;49.150;11.030;2024-03-08T06:00:29;55.77;;;33.67;;
10910;SDS011;5508;49.150;11.030;2024-03-08T06:03:31;92.77;;;50.93;;
10910;SDS011;5508;49.150;11.030;2024-03-08T06:06:31;82.53;;;47.43;;
10910;SDS011;5508;49.150;11.030;2024-03-08T06:09:32;50.47;;;32.13;;
10910;SDS011;5508;49.150;11.030;2024-03-08T06:12:33;45.33;;;27.23;;
10910;SDS011;5508;49.150;11.030;2024-03-08T06:15:40;43.90;;;27.10;;
10910;SDS011;5508;49.150;11.030;2024-03-08T06:18:40;44.73;;;27.90;;
10910;SDS011;5508;49.150;11.030;2024-03-08T06:21:41;45.60;;;26.70;;
10910;SDS011;5508;49.150;11.030;2024-03-08T06:24:41;51.63;;;30.47;;
10910;SDS011;5508;49.150;11.030;2024-03-08T06:27:42;60.93;;;36.47;;
10910;SDS011;5508;49.150;11.030;2024-03-08T06:30:43;57.90;;;35.43;;
10910;SDS011;5508;49.150;11.030;2024-03-08T06:33:43;67.90;;;38.83;;
10910;SDS011;5508;49.150;11.030;2024-03-08T06:36:45;86.30;;;46.97;;
10910;SDS011;5508;49.150;11.030;2024-03-08T06:39:45;63.13;;;38.93;;
10910;SDS011;5508;49.150;11.030;2024-03-08T06:42:46;56.27;;;34.50;;
10910;SDS011;5508;49.150;11.030;2024-03-08T06:45:47;53.43;;;33.63;;
10910;SDS011;5508;49.150;11.030;2024-03-08T06:48:50;50.70;;;32.23;;
10910;SDS011;5508;49.150;11.030;2024-03-08T06:51:51;60.47;;;35.50;;
10910;SDS011;5508;49.150;11.030;2024-03-08T06:54:51;51.87;;;32.47;;
10910;SDS011;5508;49.150;11.030;2024-03-08T06:57:52;57.73;;;34.70;;
10910;SDS011;5508;49.150;11.030;2024-03-08T07:00:53;51.57;;;34.77;;
10910;SDS011;5508;49.150;11.030;2024-03-08T07:03:54;48.70;;;32.20;;
10910;SDS011;5508;49.150;11.030;2024-03-08T07:06:56;51.23;;;32.90;;
10910;SDS011;5508;49.150;11.030;2024-03-08T07:09:57;52.13;;;32.87;;
10910;SDS011;5508;49.150;11.030;2024-03-08T07:12:58;50.30;;;31.43;;
10910;SDS011;5508;49.150;11.030;2024-03-08T07:16:00;48.23;;;32.30;;
10910;SDS011;5508;49.150;11.030;2024-03-08T07:19:01;48.43;;;31.50;;
10910;SDS011;5508;49.150;11.030;2024-03-08T07:22:03;45.67;;;32.13;;
10910;SDS011;5508;49.150;11.030;2024-03-08T07:25:05;49.83;;;32.70;;
10910;SDS011;5508;49.150;11.030;2024-03-08T07:28:20;54.53;;;32.33;;
10910;SDS011;5508;49.150;11.030;2024-03-08T07:31:21;48.37;;;30.97;;
10910;SDS011;5508;49.150;11.030;2024-03-08T07:34:31;46.87;;;30.47;;
10910;SDS011;5508;49.150;11.030;2024-03-08T07:37:33;90.17;;;48.03;;
10910;SDS011;5508;49.150;11.030;2024-03-08T07:40:37;74.00;;;44.87;;
10910;SDS011;5508;49.150;11.030;2024-03-08T07:43:44;42.20;;;28.77;;
10910;SDS011;5508;49.150;11.030;2024-03-08T07:46:45;40.37;;;26.87;;
10910;SDS011;5508;49.150;11.030;2024-03-08T07:49:45;40.07;;;26.67;;
10910;SDS011;5508;49.150;11.030;2024-03-08T07:52:46;37.07;;;26.07;;
10910;SDS011;5508;49.150;11.030;2024-03-08T07:55:46;41.63;;;26.23;;
10910;SDS011;5508;49.150;11.030;2024-03-08T07:58:47;34.77;;;24.63;;
10910;SDS011;5508;49.150;11.030;2024-03-08T08:01:48;34.30;;;23.60;;
10910;SDS011;5508;49.150;11.030;2024-03-08T08:04:49;34.37;;;24.47;;
10910;SDS011;5508;49.150;11.030;2024-03-08T08:07:49;35.87;;;24.77;;
10910;SDS011;5508;49.150;11.030;2024-03-08T08:10:52;32.57;;;22.90;;
10910;SDS011;5508;49.150;11.030;2024-03-08T08:13:52;32.97;;;22.37;;
10910;SDS011;5508;49.150;11.030;2024-03-08T08:16:54;29.47;;;20.30;;
10910;SDS011;5508;49.150;11.030;2024-03-08T08:19:57;30.80;;;19.83;;
10910;SDS011;5508;49.150;11.030;2024-03-08T08:22:57;29.10;;;20.87;;
10910;SDS011;5508;49.150;11.030;2024-03-08T08:25:59;25.77;;;19.57;;
10910;SDS011;5508;49.150;11.030;2024-03-08T08:29:00;25.83;;;19.60;;
10910;SDS011;5508;49.150;11.030;2024-03-08T08:32:00;27.10;;;19.97;;
10910;SDS011;5508;49.150;11.030;2024-03-08T08:35:01;26.93;;;19.67;;
10910;SDS011;5508;49.150;11.030;2024-03-08T08:38:05;25.40;;;18.07;;
10910;SDS011;5508;49.150;11.030;2024-03-08T08:41:07;24.23;;;18.00;;
10910;SDS011;5508;49.150;11.030;2024-03-08T08:44:07;31.37;;;17.87;;
10910;SDS011;5508;49.150;11.030;2024-03-08T08:47:12;22.63;;;16.73;;
10910;SDS011;5508;49.150;11.030;2024-03-08T08:50:13;21.13;;;16.37;;
10910;SDS011;5508;49.150;11.030;2024-03-08T08:53:13;33.23;;;16.87;;
10910;SDS011;5508;49.150;11.030;2024-03-08T08:56:14;23.00;;;15.90;;
10910;SDS011;5508;49.150;11.030;2024-03-08T08:59:15;22.20;;;16.23;;
10910;SDS011;5508;49.150;11.030;2024-03-08T09:02:19;22.23;;;16.50;;
10910;SDS011;5508;49.150;11.030;2024-03-08T09:05:21;22.23;;;15.47;;
10910;SDS011;5508;49.150;11.030;2024-03-08T09:08:24;22.37;;;15.23;;
10910;SDS011;5508;49.150;11.030;2024-03-08T09:11:24;23.13;;;17.77;;
10910;SDS011;5508;49.150;11.030;2024-03-08T09:14:25;20.47;;;15.93;;
10910;SDS011;5508;49.150;11.030;2024-03-08T09:17:26;21.20;;;15.57;;
10910;SDS011;5508;49.150;11.030;2024-03-08T09:20:26;21.93;;;16.00;;
10910;SDS011;5508;49.150;11.030;2024-03-08T09:23:27;21.57;;;15.43;;
10910;SDS011;5508;49.150;11.030;2024-03-08T09:26:30;21.53;;;14.60;;
10910;SDS011;5508;49.150;11.030;2024-03-08T09:29:32;21.07;;;15.33;;
10910;SDS011;5508;49.150;11.030;2024-03-08T09:32:33;19.33;;;14.33;;
10910;SDS011;5508;49.150;11.030;2024-03-08T09:35:33;21.37;;;16.07;;
10910;SDS011;5508;49.150;11.030;2024-03-08T09:38:34;36.43;;;14.97;;
10910;SDS011;5508;49.150;11.030;2024-03-08T09:41:34;21.63;;;15.87;;
10910;SDS011;5508;49.150;11.030;2024-03-08T09:44:35;21.83;;;14.80;;
10910;SDS011;5508;49.150;11.030;2024-03-08T09:47:38;24.80;;;15.83;;
10910;SDS011;5508;49.150;11.030;2024-03-08T09:50:40;19.77;;;15.13;;
10910;SDS011;5508;49.150;11.030;2024-03-08T09:53:41;17.27;;;13.33;;
10910;SDS011;5508;49.150;11.030;2024-03-08T09:56:46;19.37;;;15.50;;
10910;SDS011;5508;49.150;11.030;2024-03-08T09:59:48;19.27;;;13.37;;
10910;SDS011;5508;49.150;11.030;2024-03-08T10:02:49;19.73;;;14.00;;
10910;SDS011;5508;49.150;11.030;2024-03-08T10:05:53;20.40;;;14.23;;
10910;SDS011;5508;49.150;11.030;2024-03-08T10:08:56;17.23;;;13.60;;
10910;SDS011;5508;49.150;11.030;2024-03-08T10:11:57;18.57;;;13.80;;
10910;SDS011;5508;49.150;11.030;2024-03-08T10:14:58;21.07;;;15.40;;
10910;SDS011;5508;49.150;11.030;2024-03-08T10:17:59;17.17;;;13.93;;
10910;SDS011;5508;49.150;11.030;2024-03-08T10:21:02;20.43;;;14.43;;
10910;SDS011;5508;49.150;11.030;2024-03-08T10:24:07;20.07;;;15.10;;
10910;SDS011;5508;49.150;11.030;2024-03-08T10:27:10;15.37;;;12.73;;
10910;SDS011;5508;49.150;11.030;2024-03-08T10:30:14;17.80;;;13.10;;
10910;SDS011;5508;49.150;11.030;2024-03-08T10:33:19;17.10;;;13.73;;
10910;SDS011;5508;49.150;11.030;2024-03-08T10:36:20;16.67;;;13.07;;
10910;SDS011;5508;49.150;11.030;2024-03-08T10:39:21;21.00;;;14.47;;
10910;SDS011;5508;49.150;11.030;2024-03-08T10:42:24;17.50;;;13.87;;
10910;SDS011;5508;49.150;11.030;2024-03-08T10:45:36;17.23;;;13.20;;
10910;SDS011;5508;49.150;11.030;2024-03-08T10:48:41;16.67;;;12.90;;
10910;SDS011;5508;49.150;11.030;2024-03-08T10:51:44;17.00;;;13.53;;
10910;SDS011;5508;49.150;11.030;2024-03-08T10:54:45;17.33;;;13.37;;
10910;SDS011;5508;49.150;11.030;2024-03-08T10:57:48;15.37;;;12.23;;
10910;SDS011;5508;49.150;11.030;2024-03-08T11:00:49;17.87;;;14.10;;
10910;SDS011;5508;49.150;11.030;2024-03-08T11:03:50;16.50;;;12.80;;
10910;SDS011;5508;49.150;11.030;2024-03-08T11:06:53;16.67;;;13.10;;
10910;SDS011;5508;49.150;11.030;2024-03-08T11:10:01;16.53;;;13.13;;
10910;SDS011;5508;49.150;11.030;2024-03-08T11:13:08;14.77;;;11.67;;
10910;SDS011;5508;49.150;11.030;2024-03-08T11:19:44;16.53;;;11.53;;
10910;SDS011;5508;49.150;11.030;2024-03-08T11:22:48;17.77;;;11.27;;
10910;SDS011;5508;49.150;11.030;2024-03-08T11:26:23;15.43;;;12.23;;
10910;SDS011;5508;49.150;11.030;2024-03-08T11:32:29;15.03;;;11.40;;
10910;SDS011;5508;49.150;11.030;2024-03-08T11:35:30;15.80;;;10.93;;
10910;SDS011;5508;49.150;11.030;2024-03-08T11:38:31;13.93;;;9.87;;
10910;SDS011;5508;49.150;11.030;2024-03-08T11:41:33;14.03;;;10.50;;
10910;SDS011;5508;49.150;11.030;2024-03-08T11:44:33;14.30;;;10.23;;
10910;SDS011;5508;49.150;11.030;2024-03-08T11:47:34;13.50;;;10.80;;
10910;SDS011;5508;49.150;11.030;2024-03-08T11:50:35;16.40;;;10.90;;
10910;SDS011;5508;49.150;11.030;2024-03-08T11:53:36;14.63;;;11.43;;
10910;SDS011;5508;49.150;11.030;2024-03-08T11:56:36;18.90;;;11.57;;
10910;SDS011;5508;49.150;11.030;2024-03-08T11:59:37;14.30;;;9.90;;
10910;SDS011;5508;49.150;11.030;2024-03-08T12:02:37;13.27;;;10.57;;
10910;SDS011;5508;49.150;11.030;2024-03-08T12:05:40;12.80;;;9.93;;
10910;SDS011;5508;49.150;11.030;2024-03-08T12:08:43;12.73;;;10.40;;
10910;SDS011;5508;49.150;11.030;2024-03-08T12:11:43;11.50;;;8.97;;
10910;SDS011;5508;49.150;11.030;2024-03-08T12:14:50;11.03;;;9.17;;
10910;SDS011;5508;49.150;11.030;2024-03-08T12:17:52;13.77;;;11.20;;
10910;SDS011;5508;49.150;11.030;2024-03-08T12:21:08;11.80;;;9.07;;
10910;SDS011;5508;49.150;11.030;2024-03-08T12:24:20;12.00;;;9.43;;
10910;SDS011;5508;49.150;11.030;2024-03-08T12:27:21;12.50;;;9.10;;
10910;SDS011;5508;49.150;11.030;2024-03-08T12:30:22;11.97;;;9.80;;
10910;SDS011;5508;49.150;11.030;2024-03-08T12:33:27;15.30;;;8.87;;
10910;SDS011;5508;49.150;11.030;2024-03-08T12:36:27;9.70;;;8.23;;
10910;SDS011;5508;49.150;11.030;2024-03-08T12:39:29;14.03;;;8.83;;
10910;SDS011;5508;49.150;11.030;2024-03-08T12:42:30;10.97;;;7.83;;
10910;SDS011;5508;49.150;11.030;2024-03-08T12:45:31;12.73;;;9.30;;
10910;SDS011;5508;49.150;11.030;2024-03-08T12:48:35;10.13;;;7.87;;
10910;SDS011;5508;49.150;11.030;2024-03-08T12:51:40;11.93;;;8.30;;
10910;SDS011;5508;49.150;11.030;2024-03-08T12:54:41;11.93;;;8.20;;
10910;SDS011;5508;49.150;11.030;2024-03-08T12:57:42;9.30;;;8.17;;
10910;SDS011;5508;49.150;11.030;2024-03-08T13:00:43;9.90;;;7.83;;
10910;SDS011;5508;49.150;11.030;2024-03-08T13:03:44;9.60;;;8.00;;
10910;SDS011;5508;49.150;11.030;2024-03-08T13:06:44;14.10;;;8.13;;
10910;SDS011;5508;49.150;11.030;2024-03-08T13:09:46;9.90;;;7.50;;
10910;SDS011;5508;49.150;11.030;2024-03-08T13:12:47;11.23;;;7.70;;
10910;SDS011;5508;49.150;11.030;2024-03-08T13:15:48;10.43;;;7.73;;
10910;SDS011;5508;49.150;11.030;2024-03-08T13:18:49;9.23;;;7.43;;
10910;SDS011;5508;49.150;11.030;2024-03-08T13:21:49;9.53;;;7.43;;
10910;SDS011;5508;49.150;11.030;2024-03-08T13:24:50;6.97;;;6.27;;
10910;SDS011;5508;49.150;11.030;2024-03-08T13:27:52;7.17;;;6.33;;
10910;SDS011;5508;49.150;11.030;2024-03-08T13:30:56;7.93;;;6.67;;
10910;SDS011;5508;49.150;11.030;2024-03-08T13:33:57;8.73;;;6.87;;
10910;SDS011;5508;49.150;11.030;2024-03-08T13:36:58;11.33;;;6.67;;
10910;SDS011;5508;49.150;11.030;2024-03-08T13:40:00;9.77;;;6.87;;
10910;SDS011;5508;49.150;11.030;2024-03-08T13:43:01;8.10;;;7.20;;
10910;SDS011;5508;49.150;11.030;2024-03-08T13:46:02;12.70;;;7.40;;
10910;SDS011;5508;49.150;11.030;2024-03-08T13:49:04;12.87;;;6.80;;
10910;SDS011;5508;49.150;11.030;2024-03-08T13:52:07;20.80;;;7.50;;
10910;SDS011;5508;49.150;11.030;2024-03-08T13:55:08;11.40;;;6.77;;
10910;SDS011;5508;49.150;11.030;2024-03-08T13:58:09;9.23;;;7.07;;
10910;SDS011;5508;49.150;11.030;2024-03-08T14:01:09;7.77;;;6.30;;
10910;SDS011;5508;49.150;11.030;2024-03-08T14:04:12;8.60;;;6.50;;
10910;SDS011;5508;49.150;11.030;2024-03-08T14:07:12;8.40;;;6.73;;
10910;SDS011;5508;49.150;11.030;2024-03-08T14:10:13;9.37;;;6.77;;
10910;SDS011;5508;49.150;11.030;2024-03-08T14:13:14;9.60;;;6.60;;
10910;SDS011;5508;49.150;11.030;2024-03-08T14:16:18;8.83;;;6.20;;
10910;SDS011;5508;49.150;11.030;2024-03-08T14:19:19;10.20;;;6.73;;
10910;SDS011;5508;49.150;11.030;2024-03-08T14:22:20;11.20;;;6.47;;
10910;SDS011;5508;49.150;11.030;2024-03-08T14:25:21;9.23;;;6.67;;
10910;SDS011;5508;49.150;11.030;2024-03-08T14:28:23;8.97;;;7.60;;
10910;SDS011;5508;49.150;11.030;2024-03-08T14:31:24;11.20;;;6.70;;
10910;SDS011;5508;49.150;11.030;2024-03-08T14:34:25;7.77;;;6.83;;
10910;SDS011;5508;49.150;11.030;2024-03-08T14:37:30;9.07;;;7.20;;
10910;SDS011;5508;49.150;11.030;2024-03-08T14:40:30;8.93;;;7.23;;
10910;SDS011;5508;49.150;11.030;2024-03-08T14:43:31;8.43;;;7.13;;
10910;SDS011;5508;49.150;11.030;2024-03-08T14:46:32;9.23;;;6.73;;
10910;SDS011;5508;49.150;11.030;2024-03-08T14:49:33;7.93;;;7.00;;
10910;SDS011;5508;49.150;11.030;2024-03-08T14:52:36;12.17;;;6.93;;
10910;SDS011;5508;49.150;11.030;2024-03-08T14:55:39;8.10;;;6.53;;
10910;SDS011;5508;49.150;11.030;2024-03-08T14:58:40;8.27;;;6.93;;
10910;SDS011;5508;49.150;11.030;2024-03-08T15:01:41;8.30;;;7.27;;
10910;SDS011;5508;49.150;11.030;2024-03-08T15:04:43;8.80;;;7.27;;
10910;SDS011;5508;49.150;11.030;2024-03-08T15:07:47;6.97;;;6.23;;
10910;SDS011;5508;49.150;11.030;2024-03-08T15:10:49;8.50;;;6.63;;
10910;SDS011;5508;49.150;11.030;2024-03-08T15:13:53;7.53;;;6.73;;
10910;SDS011;5508;49.150;11.030;2024-03-08T15:16:54;7.40;;;6.53;;
10910;SDS011;5508;49.150;11.030;2024-03-08T15:19:55;7.67;;;6.50;;
10910;SDS011;5508;49.150;11.030;2024-03-08T15:22:55;10.00;;;6.60;;
10910;SDS011;5508;49.150;11.030;2024-03-08T15:25:58;8.67;;;6.77;;
10910;SDS011;5508;49.150;11.030;2024-03-08T15:28:59;8.63;;;7.17;;
10910;SDS011;5508;49.150;11.030;2024-03-08T15:32:00;7.50;;;6.67;;
10910;SDS011;5508;49.150;11.030;2024-03-08T15:35:00;9.23;;;7.30;;
10910;SDS011;5508;49.150;11.030;2024-03-08T15:38:01;9.50;;;7.03;;
10910;SDS011;5508;49.150;11.030;2024-03-08T15:41:02;12.67;;;6.90;;
10910;SDS011;5508;49.150;11.030;2024-03-08T15:44:09;11.87;;;8.47;;
10910;SDS011;5508;49.150;11.030;2024-03-08T15:47:12;8.90;;;6.73;;
10910;SDS011;5508;49.150;11.030;2024-03-08T15:50:13;8.27;;;6.60;;
10910;SDS011;5508;49.150;11.030;2024-03-08T15:53:14;7.27;;;6.30;;
10910;SDS011;5508;49.150;11.030;2024-03-08T15:56:15;8.97;;;6.90;;
10910;SDS011;5508;49.150;11.030;2024-03-08T15:59:16;8.70;;;6.93;;
10910;SDS011;5508;49.150;11.030;2024-03-08T16:02:16;7.87;;;6.40;;
10910;SDS011;5508;49.150;11.030;2024-03-08T16:05:18;7.73;;;6.67;;
10910;SDS011;5508;49.150;11.030;2024-03-08T16:08:19;7.00;;;6.30;;
10910;SDS011;5508;49.150;11.030;2024-03-08T16:11:21;8.83;;;6.30;;
10910;SDS011;5508;49.150;11.030;2024-03-08T16:14:22;11.03;;;6.77;;
10910;SDS011;5508;49.150;11.030;2024-03-08T16:17:24;8.17;;;6.23;;
10910;SDS011;5508;49.150;11.030;2024-03-08T16:20:24;13.60;;;6.40;;
10910;SDS011;5508;49.150;11.030;2024-03-08T16:23:25;10.83;;;5.70;;
10910;SDS011;5508;49.150;11.030;2024-03-08T16:26:26;8.40;;;6.40;;
10910;SDS011;5508;49.150;11.030;2024-03-08T16:29:27;12.20;;;6.23;;
10910;SDS011;5508;49.150;11.030;2024-03-08T16:32:29;7.50;;;5.63;;
10910;SDS011;5508;49.150;11.030;2024-03-08T16:35:29;8.10;;;5.93;;
10910;SDS011;5508;49.150;11.030;2024-03-08T16:38:30;15.30;;;6.87;;
10910;SDS011;5508;49.150;11.030;2024-03-08T16:41:30;11.03;;;6.20;;
10910;SDS011;5508;49.150;11.030;2024-03-08T16:44:32;7.33;;;6.07;;
10910;SDS011;5508;49.150;11.030;2024-03-08T16:47:32;7.43;;;5.97;;
10910;SDS011;5508;49.150;11.030;2024-03-08T16:50:36;6.97;;;5.67;;
10910;SDS011;5508;49.150;11.030;2024-03-08T16:53:36;6.20;;;5.40;;
10910;SDS011;5508;49.150;11.030;2024-03-08T16:56:40;8.77;;;5.57;;
10910;SDS011;5508;49.150;11.030;2024-03-08T16:59:44;7.53;;;5.93;;
10910;SDS011;5508;49.150;11.030;2024-03-08T17:02:45;8.03;;;6.00;;
10910;SDS011;5508;49.150;11.030;2024-03-08T17:05:47;13.23;;;6.03;;
10910;SDS011;5508;49.150;11.030;2024-03-08T17:08:51;7.80;;;6.07;;
10910;SDS011;5508;49.150;11.030;2024-03-08T17:11:52;6.13;;;5.53;;
10910;SDS011;5508;49.150;11.030;2024-03-08T17:14:53;5.83;;;5.10;;
10910;SDS011;5508;49.150;11.030;2024-03-08T17:17:54;6.33;;;5.67;;
10910;SDS011;5508;49.150;11.030;2024-03-08T17:20:59;8.27;;;6.00;;
10910;SDS011;5508;49.150;11.030;2024-03-08T17:24:00;6.17;;;5.50;;
10910;SDS011;5508;49.150;11.030;2024-03-08T17:27:01;6.53;;;5.50;;
10910;SDS011;5508;49.150;11.030;2024-03-08T17:30:02;13.80;;;5.80;;
10910;SDS011;5508;49.150;11.030;2024-03-08T17:33:15;7.40;;;6.00;;
10910;SDS011;5508;49.150;11.030;2024-03-08T17:36:21;7.33;;;6.17;;
10910;SDS011;5508;49.150;11.030;2024-03-08T17:39:22;8.83;;;7.40;;
10910;SDS011;5508;49.150;11.030;2024-03-08T17:42:26;9.53;;;8.53;;
10910;SDS011;5508;49.150;11.030;2024-03-08T17:45:27;8.27;;;7.10;;
10910;SDS011;5508;49.150;11.030;2024-03-08T17:48:28;7.13;;;5.83;;
10910;SDS011;5508;49.150;11.030;2024-03-08T17:51:29;8.60;;;6.10;;
10910;SDS011;5508;49.150;11.030;2024-03-08T17:54:30;12.47;;;6.83;;
10910;SDS011;5508;49.150;11.030;2024-03-08T17:57:32;6.90;;;5.97;;